sensor_id;sensor_type;location;lat;lon;timestamp;P1;durP1;ratioP1;P2;durP2;ratioP2
7661;SDS011;30314;48.184;11.510;2024-01-30T00:02:24;26.77;;;10.80;;
7661;SDS011;30314;48.184;11.510;2024-01-30T00:04:50;17.90;;;9.90;;
7661;SDS011;30314;48.184;11.510;2024-01-30T00:07:17;20.97;;;11.17;;
7661;SDS011;30314;48.184;11.510;2024-01-30T00:09:46;21.53;;;9.53;;
7661;SDS011;30314;48.184;11.510;2024-01-30T00:12:13;18.33;;;9.97;;
7661;SDS011;30314;48.184;11.510;2024-01-30T00:14:43;19.37;;;8.83;;
7661;SDS011;30314;48.184;11.510;2024-01-30T00:17:10;18.00;;;9.50;;
7661;SDS011;30314;48.184;11.510;2024-01-30T00:19:36;18.47;;;11.10;;
7661;SDS011;30314;48.184;11.510;2024-01-30T00:22:03;18.40;;;9.37;;
7661;SDS011;30314;48.184;11.510;2024-01-30T00:24:30;16.87;;;9.57;;
7661;SDS011;30314;48.184;11.510;2024-01-30T00:26:57;13.70;;;7.70;;
7661;SDS011;30314;48.184;11.510;2024-01-30T00:29:24;25.43;;;10.77;;
7661;SDS011;30314;48.184;11.510;2024-01-30T00:31:51;17.60;;;10.13;;
7661;SDS011;30314;48.184;11.510;2024-01-30T00:34:19;19.17;;;9.40;;
7661;SDS011;30314;48.184;11.510;2024-01-30T00:36:45;16.80;;;9.83;;
7661;SDS011;30314;48.184;11.510;2024-01-30T00:39:12;17.63;;;8.93;;
7661;SDS011;30314;48.184;11.510;2024-01-30T00:41:38;21.07;;;8.53;;
7661;SDS011;30314;48.184;11.510;2024-01-30T00:44:05;28.67;;;10.10;;
7661;SDS011;30314;48.184;11.510;2024-01-30T00:46:32;19.53;;;9.73;;
7661;SDS011;30314;48.184;11.510;2024-01-30T00:48:58;29.87;;;10.10;;
7661;SDS011;30314;48.184;11.510;2024-01-30T00:51:25;18.70;;;10.13;;
7661;SDS011;30314;48.184;11.510;2024-01-30T00:53:52;28.80;;;10.00;;
7661;SDS011;30314;48.184;11.510;2024-01-30T00:56:18;18.43;;;8.43;;
7661;SDS011;30314;48.184;11.510;2024-01-30T00:58:45;18.93;;;8.67;;
7661;SDS011;30314;48.184;11.510;2024-01-30T01:01:12;15.13;;;7.80;;
7661;SDS011;30314;48.184;11.510;2024-01-30T01:03:39;15.80;;;8.23;;
7661;SDS011;30314;48.184;11.510;2024-01-30T01:06:07;18.50;;;9.90;;
7661;SDS011;30314;48.184;11.510;2024-01-30T01:08:35;19.07;;;9.30;;
7661;SDS011;30314;48.184;11.510;2024-01-30T01:11:01;18.87;;;8.43;;
7661;SDS011;30314;48.184;11.510;2024-01-30T01:13:29;16.50;;;8.47;;
7661;SDS011;30314;48.184;11.510;2024-01-30T01:15:56;18.83;;;7.50;;
7661;SDS011;30314;48.184;11.510;2024-01-30T01:18:23;15.43;;;7.20;;
7661;SDS011;30314;48.184;11.510;2024-01-30T01:20:49;12.90;;;7.30;;
7661;SDS011;30314;48.184;11.510;2024-01-30T01:23:16;15.77;;;7.10;;
7661;SDS011;30314;48.184;11.510;2024-01-30T01:25:42;14.90;;;6.97;;
7661;SDS011;30314;48.184;11.510;2024-01-30T01:28:09;17.13;;;7.43;;
7661;SDS011;30314;48.184;11.510;2024-01-30T01:30:36;21.33;;;7.70;;
7661;SDS011;30314;48.184;11.510;2024-01-30T01:33:02;16.13;;;6.50;;
7661;SDS011;30314;48.184;11.510;2024-01-30T01:35:29;17.33;;;7.87;;
7661;SDS011;30314;48.184;11.510;2024-01-30T01:37:56;11.77;;;6.57;;
7661;SDS011;30314;48.184;11.510;2024-01-30T01:40:24;12.23;;;5.80;;
7661;SDS011;30314;48.184;11.510;2024-01-30T01:42:51;12.70;;;5.80;;
7661;SDS011;30314;48.184;11.510;2024-01-30T01:45:19;7.97;;;5.13;;
7661;SDS011;30314;48.184;11.510;2024-01-30T01:47:47;9.07;;;5.80;;
7661;SDS011;30314;48.184;11.510;2024-01-30T01:50:16;13.80;;;5.53;;
7661;SDS011;30314;48.184;11.510;2024-01-30T01:52:48;11.43;;;5.50;;
7661;SDS011;30314;48.184;11.510;2024-01-30T01:55:15;13.70;;;6.70;;
7661;SDS011;30314;48.184;11.510;2024-01-30T01:57:44;9.00;;;5.13;;
7661;SDS011;30314;48.184;11.510;2024-01-30T02:00:12;18.13;;;5.60;;
7661;SDS011;30314;48.184;11.510;2024-01-30T02:02:39;10.27;;;4.50;;
7661;SDS011;30314;48.184;11.510;2024-01-30T02:05:06;11.53;;;5.67;;
7661;SDS011;30314;48.184;11.510;2024-01-30T02:07:33;11.33;;;5.13;;
7661;SDS011;30314;48.184;11.510;2024-01-30T02:09:59;10.47;;;5.53;;
7661;SDS011;30314;48.184;11.510;2024-01-30T02:12:26;11.80;;;5.10;;
7661;SDS011;30314;48.184;11.510;2024-01-30T02:14:52;11.07;;;5.80;;
7661;SDS011;30314;48.184;11.510;2024-01-30T02:17:21;12.50;;;5.97;;
7661;SDS011;30314;48.184;11.510;2024-01-30T02:19:49;9.40;;;5.00;;
7661;SDS011;30314;48.184;11.510;2024-01-30T02:22:16;13.87;;;5.10;;
7661;SDS011;30314;48.184;11.510;2024-01-30T02:24:43;11.20;;;5.90;;
7661;SDS011;30314;48.184;11.510;2024-01-30T02:27:10;8.47;;;5.10;;
7661;SDS011;30314;48.184;11.510;2024-01-30T02:29:36;7.40;;;4.50;;
7661;SDS011;30314;48.184;11.510;2024-01-30T02:32:03;9.30;;;4.40;;
7661;SDS011;30314;48.184;11.510;2024-01-30T02:34:32;11.17;;;5.00;;
7661;SDS011;30314;48.184;11.510;2024-01-30T02:36:59;8.10;;;4.47;;
7661;SDS011;30314;48.184;11.510;2024-01-30T02:39:25;8.77;;;5.50;;
7661;SDS011;30314;48.184;11.510;2024-01-30T02:41:52;10.13;;;5.50;;
7661;SDS011;30314;48.184;11.510;2024-01-30T02:44:19;16.00;;;5.80;;
7661;SDS011;30314;48.184;11.510;2024-01-30T02:46:46;12.37;;;6.00;;
7661;SDS011;30314;48.184;11.510;2024-01-30T02:49:12;9.20;;;5.40;;
7661;SDS011;30314;48.184;11.510;2024-01-30T02:51:39;13.30;;;6.73;;
7661;SDS011;30314;48.184;11.510;2024-01-30T02:54:06;9.97;;;5.30;;
7661;SDS011;30314;48.184;11.510;2024-01-30T02:56:32;8.40;;;4.90;;
7661;SDS011;30314;48.184;11.510;2024-01-30T02:58:59;9.80;;;5.30;;
7661;SDS011;30314;48.184;11.510;2024-01-30T03:01:25;9.27;;;4.90;;
7661;SDS011;30314;48.184;11.510;2024-01-30T03:03:52;8.70;;;5.00;;
7661;SDS011;30314;48.184;11.510;2024-01-30T03:06:19;12.20;;;5.73;;
7661;SDS011;30314;48.184;11.510;2024-01-30T03:08:46;9.50;;;4.60;;
7661;SDS011;30314;48.184;11.510;2024-01-30T03:11:13;9.00;;;5.50;;
7661;SDS011;30314;48.184;11.510;2024-01-30T03:13:39;10.93;;;4.60;;
7661;SDS011;30314;48.184;11.510;2024-01-30T03:16:08;9.87;;;4.50;;
7661;SDS011;30314;48.184;11.510;2024-01-30T03:18:35;14.10;;;5.10;;
7661;SDS011;30314;48.184;11.510;2024-01-30T03:21:02;12.33;;;5.00;;
7661;SDS011;30314;48.184;11.510;2024-01-30T03:23:28;8.13;;;4.70;;
7661;SDS011;30314;48.184;11.510;2024-01-30T03:25:55;8.10;;;5.03;;
7661;SDS011;30314;48.184;11.510;2024-01-30T03:28:22;10.90;;;4.00;;
7661;SDS011;30314;48.184;11.510;2024-01-30T03:30:48;10.37;;;4.17;;
7661;SDS011;30314;48.184;11.510;2024-01-30T03:33:15;8.43;;;4.50;;
7661;SDS011;30314;48.184;11.510;2024-01-30T03:35:42;10.17;;;3.93;;
7661;SDS011;30314;48.184;11.510;2024-01-30T03:38:09;7.10;;;3.90;;
7661;SDS011;30314;48.184;11.510;2024-01-30T03:40:35;8.03;;;3.80;;
7661;SDS011;30314;48.184;11.510;2024-01-30T03:43:02;8.87;;;3.97;;
7661;SDS011;30314;48.184;11.510;2024-01-30T03:45:29;8.63;;;4.47;;
7661;SDS011;30314;48.184;11.510;2024-01-30T03:47:55;10.03;;;3.53;;
7661;SDS011;30314;48.184;11.510;2024-01-30T03:50:22;17.17;;;4.53;;
7661;SDS011;30314;48.184;11.510;2024-01-30T03:52:49;5.70;;;3.40;;
7661;SDS011;30314;48.184;11.510;2024-01-30T03:55:16;8.97;;;3.43;;
7661;SDS011;30314;48.184;11.510;2024-01-30T03:57:42;6.70;;;3.53;;
7661;SDS011;30314;48.184;11.510;2024-01-30T04:00:10;10.03;;;3.77;;
7661;SDS011;30314;48.184;11.510;2024-01-30T04:02:39;7.43;;;4.43;;
7661;SDS011;30314;48.184;11.510;2024-01-30T04:05:07;8.03;;;3.57;;
7661;SDS011;30314;48.184;11.510;2024-01-30T04:07:33;7.13;;;3.53;;
7661;SDS011;30314;48.184;11.510;2024-01-30T04:10:00;8.10;;;4.47;;
7661;SDS011;30314;48.184;11.510;2024-01-30T04:12:27;6.70;;;3.53;;
7661;SDS011;30314;48.184;11.510;2024-01-30T04:14:53;10.03;;;4.90;;
7661;SDS011;30314;48.184;11.510;2024-01-30T04:17:20;13.60;;;4.50;;
7661;SDS011;30314;48.184;11.510;2024-01-30T04:19:47;7.27;;;4.83;;
7661;SDS011;30314;48.184;11.510;2024-01-30T04:22:13;8.63;;;4.40;;
7661;SDS011;30314;48.184;11.510;2024-01-30T04:24:41;9.67;;;5.00;;
7661;SDS011;30314;48.184;11.510;2024-01-30T04:27:07;5.73;;;3.43;;
7661;SDS011;30314;48.184;11.510;2024-01-30T04:29:34;6.30;;;3.70;;
7661;SDS011;30314;48.184;11.510;2024-01-30T04:32:00;12.93;;;4.67;;
7661;SDS011;30314;48.184;11.510;2024-01-30T04:34:27;9.80;;;3.90;;
7661;SDS011;30314;48.184;11.510;2024-01-30T04:36:53;7.93;;;3.90;;
7661;SDS011;30314;48.184;11.510;2024-01-30T04:39:20;7.53;;;4.50;;
7661;SDS011;30314;48.184;11.510;2024-01-30T04:41:47;7.60;;;4.07;;
7661;SDS011;30314;48.184;11.510;2024-01-30T04:44:14;7.20;;;3.90;;
7661;SDS011;30314;48.184;11.510;2024-01-30T04:46:41;9.20;;;4.07;;
7661;SDS011;30314;48.184;11.510;2024-01-30T04:49:07;11.00;;;4.03;;
7661;SDS011;30314;48.184;11.510;2024-01-30T04:51:34;8.33;;;3.40;;
7661;SDS011;30314;48.184;11.510;2024-01-30T04:54:01;8.57;;;3.70;;
7661;SDS011;30314;48.184;11.510;2024-01-30T04:56:27;6.50;;;3.37;;
7661;SDS011;30314;48.184;11.510;2024-01-30T04:58:54;10.33;;;3.83;;
7661;SDS011;30314;48.184;11.510;2024-01-30T05:01:21;9.67;;;3.87;;
7661;SDS011;30314;48.184;11.510;2024-01-30T05:03:47;9.37;;;4.70;;
7661;SDS011;30314;48.184;11.510;2024-01-30T05:06:23;10.40;;;3.67;;
7661;SDS011;30314;48.184;11.510;2024-01-30T05:08:51;16.80;;;5.63;;
7661;SDS011;30314;48.184;11.510;2024-01-30T05:11:18;9.43;;;4.03;;
7661;SDS011;30314;48.184;11.510;2024-01-30T05:13:44;10.23;;;4.80;;
7661;SDS011;30314;48.184;11.510;2024-01-30T05:16:11;10.33;;;5.13;;
7661;SDS011;30314;48.184;11.510;2024-01-30T05:18:38;9.13;;;4.83;;
7661;SDS011;30314;48.184;11.510;2024-01-30T05:21:05;10.63;;;4.10;;
7661;SDS011;30314;48.184;11.510;2024-01-30T05:23:31;11.73;;;4.97;;
7661;SDS011;30314;48.184;11.510;2024-01-30T05:25:58;10.90;;;4.50;;
7661;SDS011;30314;48.184;11.510;2024-01-30T05:28:27;8.60;;;4.30;;
7661;SDS011;30314;48.184;11.510;2024-01-30T05:30:54;8.53;;;4.17;;
7661;SDS011;30314;48.184;11.510;2024-01-30T05:33:21;10.43;;;4.87;;
7661;SDS011;30314;48.184;11.510;2024-01-30T05:35:48;8.50;;;4.70;;
7661;SDS011;30314;48.184;11.510;2024-01-30T05:38:17;12.17;;;4.43;;
7661;SDS011;30314;48.184;11.510;2024-01-30T05:40:44;10.33;;;3.83;;
7661;SDS011;30314;48.184;11.510;2024-01-30T05:43:10;10.73;;;4.27;;
7661;SDS011;30314;48.184;11.510;2024-01-30T05:45:37;9.43;;;4.53;;
7661;SDS011;30314;48.184;11.510;2024-01-30T05:48:04;6.07;;;4.30;;
7661;SDS011;30314;48.184;11.510;2024-01-30T05:50:31;9.77;;;5.33;;
7661;SDS011;30314;48.184;11.510;2024-01-30T05:52:58;7.17;;;4.27;;
7661;SDS011;30314;48.184;11.510;2024-01-30T05:55:24;18.07;;;4.50;;
7661;SDS011;30314;48.184;11.510;2024-01-30T05:57:51;7.53;;;3.83;;
7661;SDS011;30314;48.184;11.510;2024-01-30T06:00:19;10.17;;;4.70;;
7661;SDS011;30314;48.184;11.510;2024-01-30T06:02:45;12.80;;;6.07;;
7661;SDS011;30314;48.184;11.510;2024-01-30T06:05:12;9.53;;;4.60;;
7661;SDS011;30314;48.184;11.510;2024-01-30T06:07:38;22.37;;;5.03;;
7661;SDS011;30314;48.184;11.510;2024-01-30T06:10:05;9.53;;;3.40;;
7661;SDS011;30314;48.184;11.510;2024-01-30T06:12:33;9.90;;;4.27;;
7661;SDS011;30314;48.184;11.510;2024-01-30T06:15:00;14.27;;;4.70;;
7661;SDS011;30314;48.184;11.510;2024-01-30T06:17:26;10.40;;;4.37;;
7661;SDS011;30314;48.184;11.510;2024-01-30T06:19:53;12.57;;;4.00;;
7661;SDS011;30314;48.184;11.510;2024-01-30T06:22:19;12.83;;;4.27;;
7661;SDS011;30314;48.184;11.510;2024-01-30T06:24:46;13.53;;;4.80;;
7661;SDS011;30314;48.184;11.510;2024-01-30T06:27:15;17.27;;;4.40;;
7661;SDS011;30314;48.184;11.510;2024-01-30T06:29:42;7.30;;;4.07;;
7661;SDS011;30314;48.184;11.510;2024-01-30T06:32:09;9.50;;;4.00;;
7661;SDS011;30314;48.184;11.510;2024-01-30T06:34:35;6.67;;;3.17;;
7661;SDS011;30314;48.184;11.510;2024-01-30T06:37:03;12.13;;;4.07;;
7661;SDS011;30314;48.184;11.510;2024-01-30T06:39:30;12.03;;;3.47;;
7661;SDS011;30314;48.184;11.510;2024-01-30T06:41:56;6.40;;;3.63;;
7661;SDS011;30314;48.184;11.510;2024-01-30T06:44:23;7.73;;;4.27;;
7661;SDS011;30314;48.184;11.510;2024-01-30T06:46:50;6.97;;;3.53;;
7661;SDS011;30314;48.184;11.510;2024-01-30T06:49:16;11.20;;;5.17;;
7661;SDS011;30314;48.184;11.510;2024-01-30T06:51:43;11.97;;;6.10;;
7661;SDS011;30314;48.184;11.510;2024-01-30T06:54:10;10.87;;;4.83;;
7661;SDS011;30314;48.184;11.510;2024-01-30T06:56:36;13.13;;;5.40;;
7661;SDS011;30314;48.184;11.510;2024-01-30T06:59:03;13.00;;;4.90;;
7661;SDS011;30314;48.184;11.510;2024-01-30T07:01:29;18.87;;;7.33;;
7661;SDS011;30314;48.184;11.510;2024-01-30T07:03:57;27.47;;;10.27;;
7661;SDS011;30314;48.184;11.510;2024-01-30T07:06:24;28.43;;;9.43;;
7661;SDS011;30314;48.184;11.510;2024-01-30T07:08:51;27.30;;;10.70;;
7661;SDS011;30314;48.184;11.510;2024-01-30T07:11:18;32.07;;;11.80;;
7661;SDS011;30314;48.184;11.510;2024-01-30T07:13:48;38.40;;;12.47;;
7661;SDS011;30314;48.184;11.510;2024-01-30T07:16:16;39.70;;;13.13;;
7661;SDS011;30314;48.184;11.510;2024-01-30T07:18:43;37.93;;;14.00;;
7661;SDS011;30314;48.184;11.510;2024-01-30T07:21:11;43.47;;;13.47;;
7661;SDS011;30314;48.184;11.510;2024-01-30T07:23:37;43.50;;;12.70;;
7661;SDS011;30314;48.184;11.510;2024-01-30T07:26:05;42.70;;;15.20;;
7661;SDS011;30314;48.184;11.510;2024-01-30T07:28:33;38.97;;;12.27;;
7661;SDS011;30314;48.184;11.510;2024-01-30T07:31:00;37.97;;;13.37;;
7661;SDS011;30314;48.184;11.510;2024-01-30T07:33:30;58.40;;;17.40;;
7661;SDS011;30314;48.184;11.510;2024-01-30T07:35:56;41.23;;;14.97;;
7661;SDS011;30314;48.184;11.510;2024-01-30T07:38:24;37.23;;;14.17;;
7661;SDS011;30314;48.184;11.510;2024-01-30T07:40:50;42.13;;;15.47;;
7661;SDS011;30314;48.184;11.510;2024-01-30T07:43:17;36.80;;;13.70;;
7661;SDS011;30314;48.184;11.510;2024-01-30T07:45:44;40.40;;;13.70;;
7661;SDS011;30314;48.184;11.510;2024-01-30T07:48:11;38.53;;;12.53;;
7661;SDS011;30314;48.184;11.510;2024-01-30T07:50:38;33.70;;;12.97;;
7661;SDS011;30314;48.184;11.510;2024-01-30T07:53:05;42.67;;;12.20;;
7661;SDS011;30314;48.184;11.510;2024-01-30T07:55:31;33.13;;;12.80;;
7661;SDS011;30314;48.184;11.510;2024-01-30T07:57:59;22.23;;;9.23;;
7661;SDS011;30314;48.184;11.510;2024-01-30T08:00:26;29.07;;;10.33;;
7661;SDS011;30314;48.184;11.510;2024-01-30T08:02:53;27.83;;;10.27;;
7661;SDS011;30314;48.184;11.510;2024-01-30T08:05:23;25.33;;;10.60;;
7661;SDS011;30314;48.184;11.510;2024-01-30T08:07:50;24.17;;;9.17;;
7661;SDS011;30314;48.184;11.510;2024-01-30T08:10:17;22.30;;;9.17;;
7661;SDS011;30314;48.184;11.510;2024-01-30T08:12:47;21.63;;;8.67;;
7661;SDS011;30314;48.184;11.510;2024-01-30T08:15:13;20.47;;;9.10;;
7661;SDS011;30314;48.184;11.510;2024-01-30T08:17:40;21.93;;;8.10;;
7661;SDS011;30314;48.184;11.510;2024-01-30T08:20:07;18.13;;;8.00;;
7661;SDS011;30314;48.184;11.510;2024-01-30T08:22:35;21.73;;;8.37;;
7661;SDS011;30314;48.184;11.510;2024-01-30T08:25:01;17.70;;;7.30;;
7661;SDS011;30314;48.184;11.510;2024-01-30T08:27:28;15.40;;;7.33;;
7661;SDS011;30314;48.184;11.510;2024-01-30T08:29:55;17.93;;;6.87;;
7661;SDS011;30314;48.184;11.510;2024-01-30T08:32:22;13.00;;;6.53;;
7661;SDS011;30314;48.184;11.510;2024-01-30T08:34:50;12.67;;;5.97;;
7661;SDS011;30314;48.184;11.510;2024-01-30T08:37:16;12.03;;;5.90;;
7661;SDS011;30314;48.184;11.510;2024-01-30T08:39:44;15.37;;;6.23;;
7661;SDS011;30314;48.184;11.510;2024-01-30T08:42:10;14.20;;;5.77;;
7661;SDS011;30314;48.184;11.510;2024-01-30T08:44:37;12.27;;;4.90;;
7661;SDS011;30314;48.184;11.510;2024-01-30T08:47:04;13.83;;;6.10;;
7661;SDS011;30314;48.184;11.510;2024-01-30T08:49:31;18.33;;;6.70;;
7661;SDS011;30314;48.184;11.510;2024-01-30T08:51:59;19.03;;;6.67;;
7661;SDS011;30314;48.184;11.510;2024-01-30T08:54:25;14.97;;;5.47;;
7661;SDS011;30314;48.184;11.510;2024-01-30T08:56:52;14.93;;;6.37;;
7661;SDS011;30314;48.184;11.510;2024-01-30T08:59:19;18.00;;;6.40;;
7661;SDS011;30314;48.184;11.510;2024-01-30T09:01:46;14.30;;;6.00;;
7661;SDS011;30314;48.184;11.510;2024-01-30T09:04:28;19.93;;;6.10;;
7661;SDS011;30314;48.184;11.510;2024-01-30T09:06:55;13.83;;;5.33;;
7661;SDS011;30314;48.184;11.510;2024-01-30T09:09:22;8.30;;;5.07;;
7661;SDS011;30314;48.184;11.510;2024-01-30T09:11:49;16.23;;;5.07;;
7661;SDS011;30314;48.184;11.510;2024-01-30T09:14:15;15.73;;;5.03;;
7661;SDS011;30314;48.184;11.510;2024-01-30T09:16:42;10.60;;;5.40;;
7661;SDS011;30314;48.184;11.510;2024-01-30T09:19:08;6.83;;;4.50;;
7661;SDS011;30314;48.184;11.510;2024-01-30T09:21:35;8.43;;;4.73;;
7661;SDS011;30314;48.184;11.510;2024-01-30T09:24:02;8.30;;;4.40;;
7661;SDS011;30314;48.184;11.510;2024-01-30T09:26:31;13.53;;;5.10;;
7661;SDS011;30314;48.184;11.510;2024-01-30T09:28:58;6.40;;;4.53;;
7661;SDS011;30314;48.184;11.510;2024-01-30T09:31:25;8.70;;;4.47;;
7661;SDS011;30314;48.184;11.510;2024-01-30T09:33:51;8.13;;;4.40;;
7661;SDS011;30314;48.184;11.510;2024-01-30T09:36:20;15.00;;;4.10;;
7661;SDS011;30314;48.184;11.510;2024-01-30T09:38:47;6.47;;;3.93;;
7661;SDS011;30314;48.184;11.510;2024-01-30T09:41:14;10.03;;;4.13;;
7661;SDS011;30314;48.184;11.510;2024-01-30T09:43:41;11.83;;;4.13;;
7661;SDS011;30314;48.184;11.510;2024-01-30T09:46:14;10.77;;;4.87;;
7661;SDS011;30314;48.184;11.510;2024-01-30T09:48:44;12.00;;;4.47;;
7661;SDS011;30314;48.184;11.510;2024-01-30T09:51:14;5.40;;;3.77;;
7661;SDS011;30314;48.184;11.510;2024-01-30T09:53:41;11.10;;;4.30;;
7661;SDS011;30314;48.184;11.510;2024-01-30T09:56:09;9.60;;;4.33;;
7661;SDS011;30314;48.184;11.510;2024-01-30T09:58:37;10.37;;;4.90;;
7661;SDS011;30314;48.184;11.510;2024-01-30T10:01:06;9.67;;;4.50;;
7661;SDS011;30314;48.184;11.510;2024-01-30T10:03:33;7.03;;;3.40;;
7661;SDS011;30314;48.184;11.510;2024-01-30T10:06:00;11.47;;;4.73;;
7661;SDS011;30314;48.184;11.510;2024-01-30T10:08:27;11.57;;;4.50;;
7661;SDS011;30314;48.184;11.510;2024-01-30T10:10:56;10.53;;;3.90;;
7661;SDS011;30314;48.184;11.510;2024-01-30T10:13:25;14.83;;;5.07;;
7661;SDS011;30314;48.184;11.510;2024-01-30T10:15:52;9.63;;;3.53;;
7661;SDS011;30314;48.184;11.510;2024-01-30T10:18:20;11.17;;;4.00;;
7661;SDS011;30314;48.184;11.510;2024-01-30T10:20:46;12.03;;;4.33;;
7661;SDS011;30314;48.184;11.510;2024-01-30T10:23:13;6.47;;;4.07;;
7661;SDS011;30314;48.184;11.510;2024-01-30T10:25:40;13.33;;;3.80;;
7661;SDS011;30314;48.184;11.510;2024-01-30T10:28:07;9.93;;;4.33;;
7661;SDS011;30314;48.184;11.510;2024-01-30T10:30:33;8.50;;;4.20;;
7661;SDS011;30314;48.184;11.510;2024-01-30T10:33:00;7.97;;;3.90;;
7661;SDS011;30314;48.184;11.510;2024-01-30T10:35:27;7.97;;;4.70;;
7661;SDS011;30314;48.184;11.510;2024-01-30T10:37:53;10.97;;;5.03;;
7661;SDS011;30314;48.184;11.510;2024-01-30T10:40:23;12.90;;;5.40;;
7661;SDS011;30314;48.184;11.510;2024-01-30T10:42:56;16.30;;;5.50;;
7661;SDS011;30314;48.184;11.510;2024-01-30T10:45:23;15.27;;;5.10;;
7661;SDS011;30314;48.184;11.510;2024-01-30T10:47:55;21.93;;;6.93;;
7661;SDS011;30314;48.184;11.510;2024-01-30T10:50:24;16.33;;;6.30;;
7661;SDS011;30314;48.184;11.510;2024-01-30T10:52:52;13.73;;;6.50;;
7661;SDS011;30314;48.184;11.510;2024-01-30T10:55:19;13.03;;;5.63;;
7661;SDS011;30314;48.184;11.510;2024-01-30T10:57:49;11.30;;;3.67;;
7661;SDS011;30314;48.184;11.510;2024-01-30T11:00:16;6.20;;;3.20;;
7661;SDS011;30314;48.184;11.510;2024-01-30T11:02:46;6.90;;;2.90;;
7661;SDS011;30314;48.184;11.510;2024-01-30T11:05:13;6.87;;;1.87;;
7661;SDS011;30314;48.184;11.510;2024-01-30T11:07:42;7.90;;;2.10;;
7661;SDS011;30314;48.184;11.510;2024-01-30T11:10:09;5.37;;;1.67;;
7661;SDS011;30314;48.184;11.510;2024-01-30T11:12:39;8.23;;;2.27;;
7661;SDS011;30314;48.184;11.510;2024-01-30T11:15:11;2.80;;;1.37;;
7661;SDS011;30314;48.184;11.510;2024-01-30T11:17:42;3.80;;;1.70;;
7661;SDS011;30314;48.184;11.510;2024-01-30T11:22:44;9.80;;;2.13;;
7661;SDS011;30314;48.184;11.510;2024-01-30T11:25:16;5.50;;;1.70;;
7661;SDS011;30314;48.184;11.510;2024-01-30T11:27:44;3.07;;;1.50;;
7661;SDS011;30314;48.184;11.510;2024-01-30T11:30:31;5.50;;;1.90;;
7661;SDS011;30314;48.184;11.510;2024-01-30T11:33:02;4.10;;;2.50;;
7661;SDS011;30314;48.184;11.510;2024-01-30T11:35:32;3.90;;;1.50;;
7661;SDS011;30314;48.184;11.510;2024-01-30T11:38:00;3.83;;;1.60;;
7661;SDS011;30314;48.184;11.510;2024-01-30T11:40:28;2.70;;;1.67;;
7661;SDS011;30314;48.184;11.510;2024-01-30T11:42:56;4.37;;;1.53;;
7661;SDS011;30314;48.184;11.510;2024-01-30T11:45:25;5.60;;;1.50;;
7661;SDS011;30314;48.184;11.510;2024-01-30T11:47:53;7.63;;;1.50;;
7661;SDS011;30314;48.184;11.510;2024-01-30T11:50:21;6.17;;;1.73;;
7661;SDS011;30314;48.184;11.510;2024-01-30T11:52:48;4.00;;;1.93;;
7661;SDS011;30314;48.184;11.510;2024-01-30T11:55:14;5.30;;;1.90;;
7661;SDS011;30314;48.184;11.510;2024-01-30T11:57:41;6.70;;;1.90;;
7661;SDS011;30314;48.184;11.510;2024-01-30T12:00:14;6.83;;;1.53;;
7661;SDS011;30314;48.184;11.510;2024-01-30T12:02:42;4.67;;;1.57;;
7661;SDS011;30314;48.184;11.510;2024-01-30T12:05:10;3.37;;;1.77;;
7661;SDS011;30314;48.184;11.510;2024-01-30T12:07:37;3.90;;;1.57;;
7661;SDS011;30314;48.184;11.510;2024-01-30T12:10:04;3.77;;;1.70;;
7661;SDS011;30314;48.184;11.510;2024-01-30T12:12:31;6.57;;;2.27;;
7661;SDS011;30314;48.184;11.510;2024-01-30T12:14:58;4.33;;;1.43;;
7661;SDS011;30314;48.184;11.510;2024-01-30T12:17:29;9.40;;;1.90;;
7661;SDS011;30314;48.184;11.510;2024-01-30T12:20:14;1.77;;;1.07;;
7661;SDS011;30314;48.184;11.510;2024-01-30T12:22:43;16.67;;;1.67;;
7661;SDS011;30314;48.184;11.510;2024-01-30T12:25:11;3.30;;;1.00;;
7661;SDS011;30314;48.184;11.510;2024-01-30T12:27:39;3.73;;;1.10;;
7661;SDS011;30314;48.184;11.510;2024-01-30T12:30:09;4.67;;;1.47;;
7661;SDS011;30314;48.184;11.510;2024-01-30T12:32:40;3.10;;;1.17;;
7661;SDS011;30314;48.184;11.510;2024-01-30T12:35:12;4.17;;;1.70;;
7661;SDS011;30314;48.184;11.510;2024-01-30T12:37:41;4.30;;;1.80;;
7661;SDS011;30314;48.184;11.510;2024-01-30T12:40:14;1.70;;;1.00;;
7661;SDS011;30314;48.184;11.510;2024-01-30T12:42:42;2.80;;;1.20;;
7661;SDS011;30314;48.184;11.510;2024-01-30T12:45:09;4.40;;;1.60;;
7661;SDS011;30314;48.184;11.510;2024-01-30T12:47:36;3.37;;;1.40;;
7661;SDS011;30314;48.184;11.510;2024-01-30T12:50:02;2.97;;;1.40;;
7661;SDS011;30314;48.184;11.510;2024-01-30T12:52:30;2.80;;;1.47;;
7661;SDS011;30314;48.184;11.510;2024-01-30T12:54:57;5.13;;;1.17;;
7661;SDS011;30314;48.184;11.510;2024-01-30T12:57:25;2.60;;;1.73;;
7661;SDS011;30314;48.184;11.510;2024-01-30T12:59:51;4.90;;;1.40;;
7661;SDS011;30314;48.184;11.510;2024-01-30T13:02:18;4.07;;;1.10;;
7661;SDS011;30314;48.184;11.510;2024-01-30T13:04:45;6.20;;;1.47;;
7661;SDS011;30314;48.184;11.510;2024-01-30T13:07:15;6.20;;;1.50;;
7661;SDS011;30314;48.184;11.510;2024-01-30T13:09:42;4.40;;;1.33;;
7661;SDS011;30314;48.184;11.510;2024-01-30T13:12:09;5.13;;;1.30;;
7661;SDS011;30314;48.184;11.510;2024-01-30T13:14:35;9.43;;;2.10;;
7661;SDS011;30314;48.184;11.510;2024-01-30T13:17:02;10.33;;;1.90;;
7661;SDS011;30314;48.184;11.510;2024-01-30T13:19:29;4.63;;;1.10;;
7661;SDS011;30314;48.184;11.510;2024-01-30T13:21:56;5.10;;;1.53;;
7661;SDS011;30314;48.184;11.510;2024-01-30T13:24:22;2.77;;;1.10;;
7661;SDS011;30314;48.184;11.510;2024-01-30T13:26:49;3.03;;;1.50;;
7661;SDS011;30314;48.184;11.510;2024-01-30T13:29:16;4.03;;;2.40;;
7661;SDS011;30314;48.184;11.510;2024-01-30T13:31:43;8.13;;;1.60;;
7661;SDS011;30314;48.184;11.510;2024-01-30T13:34:10;5.97;;;1.43;;
7661;SDS011;30314;48.184;11.510;2024-01-30T13:36:38;5.37;;;1.80;;
7661;SDS011;30314;48.184;11.510;2024-01-30T13:39:04;3.70;;;1.63;;
7661;SDS011;30314;48.184;11.510;2024-01-30T13:41:35;3.77;;;1.77;;
7661;SDS011;30314;48.184;11.510;2024-01-30T13:44:02;11.17;;;2.30;;
7661;SDS011;30314;48.184;11.510;2024-01-30T13:46:30;3.40;;;1.70;;
7661;SDS011;30314;48.184;11.510;2024-01-30T13:48:57;6.07;;;2.10;;
7661;SDS011;30314;48.184;11.510;2024-01-30T13:51:26;3.63;;;2.20;;
7661;SDS011;30314;48.184;11.510;2024-01-30T13:53:53;5.53;;;1.73;;
7661;SDS011;30314;48.184;11.510;2024-01-30T13:56:20;4.33;;;1.77;;
7661;SDS011;30314;48.184;11.510;2024-01-30T13:58:50;4.40;;;2.00;;
7661;SDS011;30314;48.184;11.510;2024-01-30T14:01:17;4.20;;;2.00;;
7661;SDS011;30314;48.184;11.510;2024-01-30T14:03:44;3.60;;;1.83;;
7661;SDS011;30314;48.184;11.510;2024-01-30T14:06:11;3.40;;;1.90;;
7661;SDS011;30314;48.184;11.510;2024-01-30T14:08:38;3.77;;;2.03;;
7661;SDS011;30314;48.184;11.510;2024-01-30T14:11:05;7.63;;;1.90;;
7661;SDS011;30314;48.184;11.510;2024-01-30T14:13:32;4.73;;;3.03;;
7661;SDS011;30314;48.184;11.510;2024-01-30T14:15:59;3.50;;;1.80;;
7661;SDS011;30314;48.184;11.510;2024-01-30T14:18:26;4.00;;;1.60;;
7661;SDS011;30314;48.184;11.510;2024-01-30T14:20:52;5.13;;;1.63;;
7661;SDS011;30314;48.184;11.510;2024-01-30T14:23:20;6.47;;;1.47;;
7661;SDS011;30314;48.184;11.510;2024-01-30T14:25:47;4.80;;;1.57;;
7661;SDS011;30314;48.184;11.510;2024-01-30T14:28:14;10.80;;;2.47;;
7661;SDS011;30314;48.184;11.510;2024-01-30T14:30:40;6.10;;;2.27;;
7661;SDS011;30314;48.184;11.510;2024-01-30T14:33:07;6.23;;;2.40;;
7661;SDS011;30314;48.184;11.510;2024-01-30T14:35:33;7.63;;;2.00;;
7661;SDS011;30314;48.184;11.510;2024-01-30T14:38:00;3.50;;;2.07;;
7661;SDS011;30314;48.184;11.510;2024-01-30T14:40:28;7.17;;;1.90;;
7661;SDS011;30314;48.184;11.510;2024-01-30T14:42:55;8.30;;;1.90;;
7661;SDS011;30314;48.184;11.510;2024-01-30T14:45:21;4.13;;;1.40;;